createdAt,value
2019-03-24T00:01:02.646Z,5.90
2019-03-24T00:03:31.230Z,5.45
2019-03-24T00:05:59.795Z,5.53
2019-03-24T00:08:28.703Z,5.87
2019-03-24T00:10:57.695Z,6.37
2019-03-24T00:13:26.711Z,6.85
2019-03-24T00:15:55.434Z,5.85
2019-03-24T00:18:24.000Z,6.72
2019-03-24T00:20:52.655Z,6.25
2019-03-24T00:23:21.254Z,7.70
2019-03-24T00:25:49.980Z,7.30
2019-03-24T00:28:18.564Z,7.25
2019-03-24T00:30:47.198Z,7.90
2019-03-24T00:33:15.885Z,8.30
2019-03-24T00:35:45.084Z,7.97
2019-03-24T00:38:13.604Z,7.87
2019-03-24T00:40:42.157Z,8.20
2019-03-24T00:43:10.741Z,8.95
2019-03-24T00:45:39.317Z,7.92
2019-03-24T00:48:07.985Z,7.55
2019-03-24T00:50:36.945Z,7.45
2019-03-24T00:53:05.682Z,7.25
2019-03-24T00:55:34.246Z,8.17
2019-03-24T00:58:02.976Z,6.65
2019-03-24T01:00:46.138Z,7.25
2019-03-24T01:03:15.365Z,7.00
2019-03-24T01:05:44.591Z,7.12
2019-03-24T01:08:13.619Z,5.75
2019-03-24T01:10:42.341Z,5.77
2019-03-24T01:13:12.572Z,7.08
2019-03-24T01:15:47.722Z,6.17
2019-03-24T01:18:11.522Z,5.40
2019-03-24T01:20:40.162Z,6.47
2019-03-24T01:23:08.898Z,5.65
2019-03-24T01:25:37.480Z,5.70
2019-03-24T01:28:06.288Z,5.17
2019-03-24T01:30:35.026Z,5.60
2019-03-24T01:33:03.951Z,5.70
2019-03-24T01:35:32.619Z,4.70
2019-03-24T01:38:01.503Z,5.45
2019-03-24T01:40:30.513Z,5.00
2019-03-24T01:42:59.234Z,4.78
2019-03-24T01:45:28.177Z,4.70
2019-03-24T01:47:56.697Z,4.62
2019-03-24T01:50:25.332Z,5.72
2019-03-24T01:52:53.980Z,4.80
2019-03-24T01:55:22.556Z,5.05
2019-03-24T01:57:51.138Z,5.60
2019-03-24T02:00:19.845Z,5.10
2019-03-24T02:02:48.501Z,5.85
2019-03-24T02:05:17.134Z,5.83
2019-03-24T02:07:46.089Z,7.00
2019-03-24T02:10:15.129Z,6.87
2019-03-24T02:12:43.722Z,6.50
2019-03-24T02:15:12.644Z,6.28
2019-03-24T02:17:41.298Z,5.75
2019-03-24T02:20:10.788Z,7.80
2019-03-24T02:22:39.354Z,5.40
2019-03-24T02:25:08.791Z,6.95
2019-03-24T02:27:37.666Z,6.53
2019-03-24T02:30:08.396Z,5.78
2019-03-24T02:32:37.126Z,7.12
2019-03-24T02:35:07.426Z,6.28
2019-03-24T02:37:36.131Z,6.08
2019-03-24T02:40:07.463Z,6.62
2019-03-24T02:42:35.995Z,7.03
2019-03-24T02:45:06.727Z,7.10
2019-03-24T02:47:35.292Z,7.15
2019-03-24T02:50:04.801Z,8.03
2019-03-24T02:52:33.356Z,7.17
2019-03-24T02:55:02.018Z,7.53
2019-03-24T02:57:30.946Z,7.50
2019-03-24T02:59:59.592Z,8.35
2019-03-24T03:02:28.170Z,8.13
2019-03-24T03:04:57.039Z,7.90
2019-03-24T03:07:25.701Z,7.85
2019-03-24T03:09:54.347Z,7.80
2019-03-24T03:12:23.296Z,7.95
2019-03-24T03:14:51.914Z,8.43
2019-03-24T03:17:20.466Z,8.15
2019-03-24T03:19:49.052Z,7.42
2019-03-24T03:22:17.640Z,7.62
2019-03-24T03:24:46.218Z,7.90
2019-03-24T03:27:14.853Z,7.75
2019-03-24T03:29:43.442Z,8.20
2019-03-24T03:32:12.009Z,7.97
2019-03-24T03:34:40.634Z,7.80
2019-03-24T03:37:09.187Z,8.15
2019-03-24T03:39:37.767Z,7.47
2019-03-24T03:42:06.562Z,8.05
2019-03-24T03:44:35.466Z,7.95
2019-03-24T03:47:04.143Z,8.65
2019-03-24T03:49:32.733Z,7.97
2019-03-24T03:52:01.278Z,8.68
2019-03-24T03:54:30.207Z,9.20
2019-03-24T03:56:58.766Z,9.18
2019-03-24T03:59:27.325Z,10.40
2019-03-24T04:01:55.919Z,8.40
2019-03-24T04:04:24.473Z,9.40
2019-03-24T04:06:53.123Z,8.35
2019-03-24T04:09:21.676Z,8.65
2019-03-24T04:11:50.630Z,8.90
2019-03-24T04:14:19.185Z,9.35
2019-03-24T04:16:47.778Z,8.38
2019-03-24T04:19:16.324Z,8.20
2019-03-24T04:21:44.884Z,9.35
2019-03-24T04:24:13.455Z,9.15
2019-03-24T04:26:42.005Z,9.40
2019-03-24T04:29:10.657Z,9.08
2019-03-24T04:31:39.324Z,10.65
2019-03-24T04:34:07.889Z,9.83
2019-03-24T04:36:36.435Z,8.83
2019-03-24T04:39:06.931Z,9.48
2019-03-24T04:41:35.593Z,10.28
2019-03-24T04:44:04.226Z,8.90
2019-03-24T04:46:32.793Z,8.90
2019-03-24T04:49:01.306Z,10.65
2019-03-24T04:51:29.869Z,9.58
2019-03-24T04:53:58.543Z,9.75
2019-03-24T04:56:27.113Z,9.93
2019-03-24T04:58:55.704Z,10.32
2019-03-24T05:01:24.270Z,10.03
2019-03-24T05:03:53.229Z,11.03
2019-03-24T05:06:23.236Z,9.80
2019-03-24T05:08:52.251Z,15.23
2019-03-24T05:11:20.842Z,10.23
2019-03-24T05:13:49.410Z,10.58
2019-03-24T05:16:18.005Z,10.90
2019-03-24T05:18:46.583Z,10.53
2019-03-24T05:21:15.170Z,10.35
2019-03-24T05:23:46.094Z,10.93
2019-03-24T05:26:14.301Z,11.30
2019-03-24T05:28:42.866Z,11.65
2019-03-24T05:31:11.735Z,12.00
2019-03-24T05:33:40.667Z,11.55
2019-03-24T05:36:09.272Z,12.25
2019-03-24T05:38:37.854Z,12.65
2019-03-24T05:41:06.485Z,11.63
2019-03-24T05:43:35.052Z,12.85
2019-03-24T05:46:03.709Z,12.88
2019-03-24T05:48:32.707Z,13.05
2019-03-24T05:51:01.303Z,15.25
2019-03-24T05:53:29.859Z,14.30
2019-03-24T05:55:58.464Z,13.85
2019-03-24T05:58:27.302Z,13.53
2019-03-24T06:00:56.254Z,14.83
2019-03-24T06:03:24.914Z,16.55
2019-03-24T06:05:53.847Z,16.02
2019-03-24T06:08:22.506Z,16.37
2019-03-24T06:10:51.061Z,15.55
2019-03-24T06:13:19.653Z,15.32
2019-03-24T06:15:48.249Z,14.68
2019-03-24T06:18:17.181Z,15.28
2019-03-24T06:20:45.819Z,14.18
2019-03-24T06:23:14.688Z,13.68
2019-03-24T06:25:43.256Z,14.70
2019-03-24T06:28:11.818Z,14.45
2019-03-24T06:30:40.463Z,13.30
2019-03-24T06:33:09.029Z,13.98
2019-03-24T06:35:37.603Z,15.45
2019-03-24T06:38:06.248Z,15.58
2019-03-24T06:40:35.298Z,13.58
2019-03-24T06:43:03.941Z,13.93
2019-03-24T06:45:32.491Z,14.70
2019-03-24T06:48:01.137Z,13.43
2019-03-24T06:50:29.695Z,14.68
2019-03-24T06:52:58.997Z,12.98
2019-03-24T06:55:27.524Z,13.18
2019-03-24T06:57:56.109Z,12.47
2019-03-24T07:00:24.749Z,13.85
2019-03-24T07:02:53.335Z,12.93
2019-03-24T07:05:21.973Z,12.82
2019-03-24T07:07:50.578Z,12.03
2019-03-24T07:10:19.181Z,12.90
2019-03-24T07:12:47.843Z,13.58
2019-03-24T07:15:16.482Z,11.97
2019-03-24T07:17:45.460Z,12.00
2019-03-24T07:20:14.166Z,12.50
2019-03-24T07:22:43.066Z,12.00
2019-03-24T07:25:12.198Z,11.28
2019-03-24T07:27:40.771Z,10.95
2019-03-24T07:30:11.010Z,11.90
2019-03-24T07:32:39.941Z,10.88
2019-03-24T07:35:08.688Z,9.48
2019-03-24T07:37:37.262Z,9.48
2019-03-24T07:40:08.266Z,9.40
2019-03-24T07:42:36.830Z,9.35
2019-03-24T07:45:07.473Z,8.88
2019-03-24T07:47:36.120Z,8.85
2019-03-24T07:50:08.033Z,8.33
2019-03-24T07:52:36.953Z,7.17
2019-03-24T07:55:07.448Z,7.20
2019-03-24T07:57:36.185Z,7.45
2019-03-24T08:00:09.621Z,6.95
2019-03-24T08:02:38.211Z,7.37
2019-03-24T08:05:07.136Z,7.17
2019-03-24T08:07:35.730Z,6.90
2019-03-24T08:10:06.179Z,7.37
2019-03-24T08:12:35.052Z,6.28
2019-03-24T08:15:03.968Z,5.80
2019-03-24T08:17:32.550Z,5.42
2019-03-24T08:20:01.126Z,6.10
2019-03-24T08:22:30.009Z,5.12
2019-03-24T08:24:58.565Z,5.50
2019-03-24T08:27:27.157Z,5.47
2019-03-24T08:29:55.724Z,5.57
2019-03-24T08:32:24.772Z,4.83
2019-03-24T08:34:53.358Z,4.70
2019-03-24T08:37:22.087Z,6.13
2019-03-24T08:39:50.730Z,5.17
2019-03-24T08:42:19.457Z,6.13
2019-03-24T08:44:48.220Z,6.13
2019-03-24T08:47:16.818Z,5.33
2019-03-24T08:49:45.384Z,5.03
2019-03-24T08:52:14.405Z,7.17
2019-03-24T08:54:43.069Z,5.67
2019-03-24T08:57:11.623Z,5.87
2019-03-24T08:59:40.242Z,5.97
2019-03-24T09:02:08.905Z,4.83
2019-03-24T09:04:37.496Z,4.23
2019-03-24T09:07:06.192Z,4.70
2019-03-24T09:09:34.800Z,3.80
2019-03-24T09:12:03.358Z,4.30
2019-03-24T09:14:31.985Z,4.83
2019-03-24T09:17:00.561Z,3.33
2019-03-24T09:19:29.149Z,3.80
2019-03-24T09:21:57.721Z,4.10
2019-03-24T09:24:26.301Z,3.37
2019-03-24T09:26:54.950Z,3.33
2019-03-24T09:29:23.509Z,4.10
2019-03-24T09:31:52.174Z,3.77
2019-03-24T09:34:21.763Z,3.77
2019-03-24T09:36:50.362Z,3.60
2019-03-24T09:39:18.983Z,2.83
2019-03-24T09:41:47.659Z,3.17
2019-03-24T09:44:16.237Z,4.10
2019-03-24T09:46:44.845Z,2.80
2019-03-24T09:49:13.803Z,4.57
2019-03-24T09:51:42.673Z,3.50
2019-03-24T09:54:11.281Z,3.30
2019-03-24T09:56:39.874Z,3.37
2019-03-24T09:59:10.143Z,3.90
2019-03-24T10:01:38.795Z,3.67
2019-03-24T10:04:07.648Z,3.50
2019-03-24T10:06:36.226Z,3.03
2019-03-24T10:09:06.155Z,2.57
2019-03-24T10:11:35.094Z,3.57
2019-03-24T10:14:03.800Z,3.70
2019-03-24T10:16:32.451Z,3.60
2019-03-24T10:19:01.039Z,3.67
2019-03-24T10:21:29.618Z,3.90
2019-03-24T10:23:58.229Z,3.30
2019-03-24T10:26:26.779Z,3.57
2019-03-24T10:28:55.788Z,3.77
2019-03-24T10:31:24.501Z,4.00
2019-03-24T10:33:53.099Z,3.60
2019-03-24T10:36:21.678Z,4.07
2019-03-24T10:38:50.228Z,2.77
2019-03-24T10:41:18.921Z,3.70
2019-03-24T10:43:47.454Z,3.70
2019-03-24T10:46:17.607Z,3.90
2019-03-24T10:48:46.164Z,3.60
2019-03-24T10:51:14.770Z,4.07
2019-03-24T10:53:43.341Z,3.47
2019-03-24T10:56:11.929Z,3.37
2019-03-24T10:58:40.507Z,3.77
2019-03-24T11:01:09.135Z,4.27
2019-03-24T11:03:37.698Z,3.67
2019-03-24T11:06:06.346Z,3.20
2019-03-24T11:08:35.012Z,2.63
2019-03-24T11:11:03.691Z,3.17
2019-03-24T11:13:32.274Z,2.60
2019-03-24T11:16:01.187Z,3.00
2019-03-24T11:18:29.804Z,3.50
2019-03-24T11:20:58.374Z,2.93
2019-03-24T11:23:26.942Z,2.30
2019-03-24T11:25:55.572Z,2.43
2019-03-24T11:28:24.141Z,2.40
2019-03-24T11:30:53.404Z,2.63
2019-03-24T11:33:21.898Z,2.93
2019-03-24T11:35:50.504Z,3.03
2019-03-24T11:38:19.057Z,2.87
2019-03-24T11:40:48.005Z,3.17
2019-03-24T11:43:16.577Z,2.07
2019-03-24T11:45:45.229Z,2.00
2019-03-24T11:48:13.816Z,1.80
2019-03-24T11:50:42.421Z,2.23
2019-03-24T11:53:10.973Z,1.97
2019-03-24T11:55:39.633Z,2.13
2019-03-24T11:58:08.212Z,2.20
2019-03-24T12:00:38.228Z,2.40
2019-03-24T12:03:06.881Z,1.90
2019-03-24T12:05:35.626Z,1.97
2019-03-24T12:08:04.648Z,2.57
2019-03-24T12:10:33.319Z,1.97
2019-03-24T12:13:02.177Z,2.00
2019-03-24T12:15:30.907Z,2.43
2019-03-24T12:18:01.014Z,2.33
2019-03-24T12:20:29.615Z,2.80
2019-03-24T12:22:58.213Z,2.13
2019-03-24T12:25:26.791Z,2.00
2019-03-24T12:27:55.364Z,2.10
2019-03-24T12:30:24.612Z,2.20
2019-03-24T12:32:53.218Z,2.20
2019-03-24T12:35:24.187Z,2.27
2019-03-24T12:37:54.924Z,2.30
2019-03-24T12:40:23.489Z,2.50
2019-03-24T12:42:52.246Z,1.83
2019-03-24T12:45:20.967Z,2.30
2019-03-24T12:47:49.907Z,2.40
2019-03-24T12:50:18.558Z,1.97
2019-03-24T12:52:47.126Z,1.90
2019-03-24T12:55:15.762Z,2.47
2019-03-24T12:57:44.360Z,2.30
2019-03-24T13:00:14.830Z,2.40
2019-03-24T13:02:43.422Z,2.67
2019-03-24T13:05:13.065Z,2.27
2019-03-24T13:07:41.707Z,2.23
2019-03-24T13:10:11.558Z,1.80
2019-03-24T13:12:40.133Z,1.90
2019-03-24T13:15:09.155Z,2.37
2019-03-24T13:17:37.886Z,2.37
2019-03-24T13:20:20.101Z,1.83
2019-03-24T13:22:40.062Z,2.53
2019-03-24T13:25:09.263Z,2.13
2019-03-24T13:27:37.913Z,1.60
2019-03-24T13:30:07.393Z,2.20
2019-03-24T13:32:36.023Z,2.10
2019-03-24T13:35:04.955Z,2.13
2019-03-24T13:37:33.563Z,2.23
2019-03-24T13:40:02.865Z,2.43
2019-03-24T13:42:31.535Z,2.83
2019-03-24T13:45:00.170Z,2.57
2019-03-24T13:47:29.008Z,2.23
2019-03-24T13:49:57.658Z,2.97
2019-03-24T13:52:26.280Z,2.73
2019-03-24T13:54:56.187Z,2.00
2019-03-24T13:57:24.745Z,1.90
2019-03-24T13:59:53.394Z,2.10
2019-03-24T14:02:22.031Z,2.20
2019-03-24T14:04:50.698Z,2.43
2019-03-24T14:07:19.267Z,1.93
2019-03-24T14:09:47.985Z,2.50
2019-03-24T14:12:16.597Z,2.20
2019-03-24T14:14:45.120Z,2.47
2019-03-24T14:17:13.672Z,2.23
2019-03-24T14:19:42.269Z,2.20
2019-03-24T14:22:11.015Z,2.37
2019-03-24T14:24:39.750Z,2.20
2019-03-24T14:27:08.462Z,1.73
2019-03-24T14:29:37.141Z,2.10
2019-03-24T14:32:06.111Z,2.40
2019-03-24T14:34:35.309Z,3.00
2019-03-24T14:37:04.156Z,2.50
2019-03-24T14:39:32.757Z,1.87
2019-03-24T14:42:01.395Z,1.90
2019-03-24T14:44:30.083Z,2.20
2019-03-24T14:46:58.754Z,2.57
2019-03-24T14:49:27.998Z,2.43
2019-03-24T14:51:56.634Z,2.70
2019-03-24T14:54:25.202Z,2.60
2019-03-24T14:56:53.775Z,2.70
2019-03-24T14:59:22.435Z,2.83
2019-03-24T15:01:51.131Z,2.10
2019-03-24T15:04:19.687Z,2.40
2019-03-24T15:06:48.293Z,2.37
2019-03-24T15:09:16.946Z,2.33
2019-03-24T15:11:45.613Z,2.47
2019-03-24T15:14:14.272Z,2.30
2019-03-24T15:16:42.902Z,17.27
2019-03-24T15:19:11.487Z,3.33
2019-03-24T15:21:40.120Z,2.10
2019-03-24T15:24:09.039Z,1.83
2019-03-24T15:26:37.599Z,4.37
2019-03-24T15:29:06.354Z,2.80
2019-03-24T15:31:35.031Z,5.93
2019-03-24T15:34:04.587Z,4.53
2019-03-24T15:36:33.152Z,6.20
2019-03-24T15:39:01.771Z,5.93
2019-03-24T15:41:30.478Z,9.17
2019-03-24T15:43:59.064Z,1.53
2019-03-24T15:46:27.702Z,2.07
2019-03-24T15:48:56.391Z,1.83
2019-03-24T15:51:25.237Z,1.67
2019-03-24T15:53:53.809Z,1.70
2019-03-24T15:56:22.423Z,1.93
2019-03-24T15:58:51.080Z,1.63
2019-03-24T16:01:19.865Z,1.80
2019-03-24T16:03:48.602Z,1.60
2019-03-24T16:06:17.248Z,1.80
2019-03-24T16:08:45.878Z,1.70
2019-03-24T16:11:16.128Z,1.57
2019-03-24T16:13:44.884Z,1.93
2019-03-24T16:16:13.924Z,2.20
2019-03-24T16:18:42.475Z,2.00
2019-03-24T16:21:11.125Z,1.67
2019-03-24T16:23:39.691Z,1.67
2019-03-24T16:26:08.342Z,1.83
2019-03-24T16:28:37.072Z,1.70
2019-03-24T16:31:05.772Z,1.50
2019-03-24T16:33:34.367Z,1.60
2019-03-24T16:36:03.221Z,1.97
2019-03-24T16:38:31.792Z,1.47
2019-03-24T16:41:00.399Z,1.77
2019-03-24T16:43:28.999Z,1.83
2019-03-24T16:45:57.613Z,1.40
2019-03-24T16:48:36.407Z,2.07
2019-03-24T16:50:56.453Z,1.50
2019-03-24T16:53:25.033Z,2.60
2019-03-24T16:55:53.601Z,2.80
2019-03-24T16:58:22.207Z,4.70
2019-03-24T17:00:50.828Z,3.97
2019-03-24T17:03:19.416Z,2.23
2019-03-24T17:05:48.548Z,1.97
2019-03-24T17:08:17.137Z,2.10
2019-03-24T17:10:45.801Z,2.20
2019-03-24T17:13:14.360Z,2.37
2019-03-24T17:15:43.026Z,1.90
2019-03-24T17:18:11.763Z,1.90
2019-03-24T17:20:40.427Z,1.90
2019-03-24T17:23:09.049Z,2.00
2019-03-24T17:25:37.707Z,1.80
2019-03-24T17:28:06.427Z,1.63
2019-03-24T17:30:35.010Z,2.30
2019-03-24T17:33:03.672Z,2.20
2019-03-24T17:35:32.220Z,1.80
2019-03-24T17:38:00.813Z,1.80
2019-03-24T17:40:29.529Z,2.63
2019-03-24T17:42:58.147Z,1.87
2019-03-24T17:45:26.864Z,2.17
2019-03-24T17:47:55.525Z,2.37
2019-03-24T17:50:24.176Z,1.77
2019-03-24T17:52:52.847Z,1.80
2019-03-24T17:55:27.647Z,2.20
2019-03-24T17:57:51.730Z,1.73
2019-03-24T18:00:40.700Z,1.60
2019-03-24T18:03:09.424Z,2.13
2019-03-24T18:05:38.208Z,1.50
2019-03-24T18:08:06.866Z,1.47
2019-03-24T18:10:35.843Z,1.80
2019-03-24T18:13:05.542Z,1.60
2019-03-24T18:15:34.664Z,1.30
2019-03-24T18:18:03.374Z,2.10
2019-03-24T18:20:33.615Z,1.53
2019-03-24T18:23:02.466Z,1.70
2019-03-24T18:25:31.459Z,1.50
2019-03-24T18:28:00.036Z,1.80
2019-03-24T18:30:28.720Z,1.90
2019-03-24T18:32:57.482Z,2.10
2019-03-24T18:35:26.125Z,2.13
2019-03-24T18:37:54.855Z,1.70
2019-03-24T18:40:23.404Z,2.63
2019-03-24T18:42:52.276Z,2.67
2019-03-24T18:45:21.003Z,2.57
2019-03-24T18:47:49.687Z,2.60
2019-03-24T18:50:18.403Z,2.70
2019-03-24T18:52:46.978Z,2.47
2019-03-24T18:55:16.161Z,2.83
2019-03-24T18:57:44.725Z,2.57
2019-03-24T19:00:14.962Z,3.20
2019-03-24T19:02:43.595Z,3.07
2019-03-24T19:05:12.618Z,3.63
2019-03-24T19:07:41.242Z,3.80
2019-03-24T19:10:12.274Z,3.97
2019-03-24T19:12:40.868Z,4.47
2019-03-24T19:15:15.028Z,4.97
2019-03-24T19:17:43.828Z,5.27
2019-03-24T19:20:14.056Z,4.03
2019-03-24T19:22:42.620Z,5.53
2019-03-24T19:25:11.584Z,4.57
2019-03-24T19:27:40.294Z,4.07
2019-03-24T19:30:14.912Z,4.90
2019-03-24T19:32:44.096Z,3.90
2019-03-24T19:35:13.308Z,4.80
2019-03-24T19:37:42.603Z,4.33
2019-03-24T19:40:26.014Z,3.80
2019-03-24T19:42:55.244Z,4.05
2019-03-24T19:45:23.908Z,4.50
2019-03-24T19:47:53.538Z,4.37
2019-03-24T19:50:22.184Z,3.90
2019-03-24T19:52:51.111Z,3.97
2019-03-24T19:55:19.836Z,4.03
2019-03-24T19:57:48.919Z,3.73
2019-03-24T20:00:18.002Z,3.70
2019-03-24T20:02:46.595Z,3.03
2019-03-24T20:05:15.246Z,3.37
2019-03-24T20:07:48.182Z,5.23
2019-03-24T20:10:14.441Z,3.73
2019-03-24T20:12:43.183Z,3.30
2019-03-24T20:15:12.218Z,3.47
2019-03-24T20:17:40.941Z,3.40
2019-03-24T20:20:10.332Z,3.95
2019-03-24T20:22:38.944Z,3.77
2019-03-24T20:25:08.128Z,4.13
2019-03-24T20:27:37.067Z,3.80
2019-03-24T20:30:10.572Z,4.27
2019-03-24T20:32:39.257Z,3.40
2019-03-24T20:35:08.259Z,3.30
2019-03-24T20:37:36.924Z,3.60
2019-03-24T20:40:08.835Z,3.37
2019-03-24T20:42:37.462Z,3.02
2019-03-24T20:45:07.960Z,3.20
2019-03-24T20:47:36.874Z,3.10
2019-03-24T20:50:07.785Z,3.50
2019-03-24T20:52:36.425Z,2.60
2019-03-24T20:55:08.034Z,2.70
2019-03-24T20:57:36.676Z,2.87
2019-03-24T21:00:07.474Z,2.60
2019-03-24T21:02:36.150Z,2.73
2019-03-24T21:05:05.969Z,2.77
2019-03-24T21:07:34.554Z,2.70
2019-03-24T21:10:04.085Z,2.37
2019-03-24T21:12:32.674Z,2.90
2019-03-24T21:15:01.330Z,3.70
2019-03-24T21:17:30.456Z,3.33
2019-03-24T21:19:59.022Z,3.83
2019-03-24T21:22:27.590Z,3.15
2019-03-24T21:24:56.197Z,3.60
2019-03-24T21:27:24.777Z,5.97
2019-03-24T21:29:53.359Z,4.27
2019-03-24T21:32:21.920Z,3.53
2019-03-24T21:34:50.511Z,4.47
2019-03-24T21:37:19.433Z,4.10
2019-03-24T21:39:47.995Z,3.80
2019-03-24T21:42:16.598Z,3.93
2019-03-24T21:44:45.236Z,4.47
2019-03-24T21:47:13.882Z,4.90
2019-03-24T21:49:42.451Z,3.70
2019-03-24T21:52:11.356Z,4.00
2019-03-24T21:54:40.278Z,4.20
2019-03-24T21:57:09.380Z,4.30
2019-03-24T21:59:38.058Z,4.00
2019-03-24T22:02:06.742Z,4.87
2019-03-24T22:04:35.327Z,5.37
2019-03-24T22:07:04.230Z,4.43
2019-03-24T22:09:32.813Z,4.35
2019-03-24T22:12:01.398Z,4.80
2019-03-24T22:14:29.996Z,4.83
2019-03-24T22:16:58.580Z,4.63
2019-03-24T22:19:27.235Z,4.62
2019-03-24T22:21:55.897Z,4.27
2019-03-24T22:24:24.498Z,4.47
2019-03-24T22:26:53.146Z,4.13
2019-03-24T22:29:22.035Z,4.83
2019-03-24T22:31:50.927Z,4.13
2019-03-24T22:34:19.479Z,4.50
2019-03-24T22:36:48.082Z,4.20
2019-03-24T22:39:16.726Z,4.50
2019-03-24T22:41:45.299Z,5.47
2019-03-24T22:44:13.900Z,5.10
2019-03-24T22:46:42.458Z,5.50
2019-03-24T22:49:11.074Z,4.67
2019-03-24T22:51:39.848Z,5.53
2019-03-24T22:54:08.499Z,5.47
2019-03-24T22:56:37.155Z,5.53
2019-03-24T22:59:05.745Z,4.17
2019-03-24T23:01:34.515Z,4.95
2019-03-24T23:04:03.486Z,4.58
2019-03-24T23:06:32.048Z,5.50
2019-03-24T23:09:00.690Z,4.77
2019-03-24T23:11:29.258Z,4.95
2019-03-24T23:13:57.830Z,5.05
2019-03-24T23:16:26.444Z,4.45
2019-03-24T23:18:55.021Z,5.30
2019-03-24T23:21:23.614Z,4.83
2019-03-24T23:23:52.271Z,5.17
2019-03-24T23:26:20.999Z,4.93
2019-03-24T23:28:49.567Z,5.05
2019-03-24T23:31:18.435Z,4.30
2019-03-24T23:33:47.076Z,4.40
2019-03-24T23:36:15.749Z,3.80
2019-03-24T23:38:44.406Z,4.85
2019-03-24T23:41:13.060Z,4.40
2019-03-24T23:43:41.722Z,4.70
2019-03-24T23:46:10.332Z,4.47
2019-03-24T23:48:38.950Z,4.90
2019-03-24T23:51:07.877Z,4.50
2019-03-24T23:53:36.568Z,4.72
2019-03-24T23:56:05.173Z,4.25
2019-03-24T23:58:40.938Z,5.20
